createdAt,value
2017-08-11T00:01:10.244Z,54.60
2017-08-11T00:03:36.844Z,54.43
2017-08-11T00:06:03.459Z,53.43
2017-08-11T00:08:30.194Z,55.47
2017-08-11T00:10:56.858Z,55.17
2017-08-11T00:13:23.465Z,53.77
2017-08-11T00:15:50.074Z,54.23
2017-08-11T00:18:16.672Z,54.80
2017-08-11T00:20:43.267Z,46.70
2017-08-11T00:23:10.047Z,44.97
2017-08-11T00:25:36.643Z,43.47
2017-08-11T00:28:03.248Z,45.43
2017-08-11T00:30:30.103Z,44.30
2017-08-11T00:32:56.764Z,44.53
2017-08-11T00:35:23.441Z,44.30
2017-08-11T00:37:50.195Z,44.67
2017-08-11T00:40:16.795Z,45.17
2017-08-11T00:42:43.391Z,44.73
2017-08-11T00:45:10.040Z,43.97
2017-08-11T00:47:36.631Z,43.07
2017-08-11T00:50:03.303Z,48.00
2017-08-11T00:52:30.338Z,46.83
2017-08-11T00:54:57.484Z,49.20
2017-08-11T00:57:24.063Z,48.40
2017-08-11T00:59:50.683Z,50.40
2017-08-11T01:02:17.319Z,49.03
2017-08-11T01:04:43.916Z,48.30
2017-08-11T01:07:10.751Z,48.90
2017-08-11T01:09:37.342Z,48.33
2017-08-11T01:12:03.999Z,50.50
2017-08-11T01:14:30.619Z,48.90
2017-08-11T01:16:57.224Z,49.80
2017-08-11T01:19:23.819Z,49.77
2017-08-11T01:21:50.443Z,49.83
2017-08-11T01:24:17.030Z,47.07
2017-08-11T01:26:43.627Z,47.30
2017-08-11T01:29:10.273Z,51.37
2017-08-11T01:31:36.935Z,53.73
2017-08-11T01:34:03.540Z,50.43
2017-08-11T01:36:30.416Z,51.57
2017-08-11T01:38:57.015Z,50.80
2017-08-11T01:41:23.617Z,53.47
2017-08-11T01:43:50.375Z,51.57
2017-08-11T01:46:17.002Z,54.93
2017-08-11T01:48:43.602Z,56.33
2017-08-11T01:51:10.451Z,56.10
2017-08-11T01:53:37.048Z,55.80
2017-08-11T01:56:03.666Z,53.50
2017-08-11T01:58:30.490Z,53.43
2017-08-11T02:00:57.103Z,53.13
2017-08-11T02:03:23.699Z,54.10
2017-08-11T02:05:50.695Z,55.07
2017-08-11T02:08:17.301Z,53.47
2017-08-11T02:10:43.895Z,54.93
2017-08-11T02:13:10.767Z,55.90
2017-08-11T02:15:37.365Z,58.13
2017-08-11T02:18:03.974Z,57.80
2017-08-11T02:20:30.586Z,58.50
2017-08-11T02:22:57.331Z,56.20
2017-08-11T02:25:23.940Z,55.60
2017-08-11T02:27:50.920Z,55.97
2017-08-11T02:30:17.547Z,54.20
2017-08-11T02:32:44.143Z,52.97
2017-08-11T02:35:11.027Z,56.80
2017-08-11T02:37:37.627Z,53.80
2017-08-11T02:40:04.256Z,55.50
2017-08-11T02:42:31.268Z,55.10
2017-08-11T02:44:57.905Z,51.13
2017-08-11T02:47:24.500Z,52.27
2017-08-11T02:49:51.216Z,51.30
2017-08-11T02:52:17.805Z,49.00
2017-08-11T02:54:44.404Z,51.87
2017-08-11T02:57:11.400Z,51.10
2017-08-11T02:59:38.024Z,49.47
2017-08-11T03:02:04.663Z,50.47
2017-08-11T03:04:31.654Z,48.03
2017-08-11T03:06:58.248Z,47.00
2017-08-11T03:09:24.886Z,48.00
2017-08-11T03:11:51.530Z,48.10
2017-08-11T03:14:18.118Z,46.87
2017-08-11T03:16:44.711Z,45.00
2017-08-11T03:19:11.518Z,48.73
2017-08-11T03:21:38.108Z,46.17
2017-08-11T03:24:04.749Z,45.90
2017-08-11T03:26:31.467Z,47.93
2017-08-11T03:28:58.087Z,47.93
2017-08-11T03:31:24.696Z,47.00
2017-08-11T03:33:51.458Z,49.00
2017-08-11T03:36:18.047Z,48.53
2017-08-11T03:38:44.702Z,46.77
2017-08-11T03:41:11.470Z,49.40
2017-08-11T03:43:38.067Z,49.67
2017-08-11T03:46:04.683Z,49.20
2017-08-11T03:48:31.391Z,48.20
2017-08-11T03:50:57.989Z,49.43
2017-08-11T03:53:24.603Z,51.00
2017-08-11T03:55:51.483Z,47.13
2017-08-11T03:58:18.075Z,46.93
2017-08-11T04:00:44.675Z,45.50
2017-08-11T04:03:11.530Z,47.30
2017-08-11T04:05:38.122Z,43.57
2017-08-11T04:08:04.723Z,45.23
2017-08-11T04:10:31.723Z,45.73
2017-08-11T04:12:58.319Z,45.47
2017-08-11T04:15:24.922Z,50.67
2017-08-11T04:17:51.703Z,47.33
2017-08-11T04:20:18.573Z,47.87
2017-08-11T04:22:45.167Z,46.80
2017-08-11T04:25:11.920Z,48.37
2017-08-11T04:27:38.507Z,47.17
2017-08-11T04:30:05.108Z,51.33
2017-08-11T04:32:32.235Z,49.20
2017-08-11T04:34:58.856Z,50.53
2017-08-11T04:37:25.592Z,50.70
2017-08-11T04:39:52.235Z,48.90
2017-08-11T04:42:18.830Z,51.30
2017-08-11T04:44:45.428Z,48.70
2017-08-11T04:47:12.146Z,50.10
2017-08-11T04:49:38.745Z,48.73
2017-08-11T04:52:05.340Z,48.73
2017-08-11T04:54:32.350Z,47.57
2017-08-11T04:56:58.962Z,47.53
2017-08-11T04:59:25.568Z,47.97
2017-08-11T05:01:52.515Z,45.40
2017-08-11T05:04:19.125Z,48.23
2017-08-11T05:06:45.719Z,48.50
2017-08-11T05:09:12.480Z,46.37
2017-08-11T05:11:39.131Z,45.67
2017-08-11T05:14:05.703Z,46.27
2017-08-11T05:16:32.508Z,43.73
2017-08-11T05:18:59.124Z,45.73
2017-08-11T05:21:25.767Z,47.00
2017-08-11T05:23:52.399Z,45.73
2017-08-11T05:26:18.995Z,45.80
2017-08-11T05:28:45.630Z,47.13
2017-08-11T05:31:12.545Z,45.00
2017-08-11T05:33:39.163Z,45.97
2017-08-11T05:36:05.759Z,45.60
2017-08-11T05:38:32.771Z,42.67
2017-08-11T05:40:59.602Z,44.30
2017-08-11T05:43:26.347Z,43.60
2017-08-11T05:45:53.111Z,44.53
2017-08-11T05:48:19.703Z,43.63
2017-08-11T05:50:46.296Z,41.20
2017-08-11T05:53:12.959Z,42.77
2017-08-11T05:55:39.579Z,42.17
2017-08-11T05:58:06.327Z,41.77
2017-08-11T06:00:33.107Z,39.67
2017-08-11T06:02:59.717Z,41.23
2017-08-11T06:05:26.327Z,40.63
2017-08-11T06:07:53.043Z,42.43
2017-08-11T06:10:19.635Z,40.50
2017-08-11T06:12:46.249Z,41.50
2017-08-11T06:15:12.879Z,40.00
2017-08-11T06:17:39.471Z,38.70
2017-08-11T06:20:06.063Z,39.93
2017-08-11T06:22:32.900Z,37.90
2017-08-11T06:24:59.498Z,36.70
2017-08-11T06:27:26.153Z,38.63
2017-08-11T06:29:53.207Z,35.17
2017-08-11T06:32:19.813Z,35.93
2017-08-11T06:34:46.407Z,35.20
2017-08-11T06:37:13.096Z,34.00
2017-08-11T06:39:39.703Z,34.13
2017-08-11T06:42:06.364Z,32.47
2017-08-11T06:44:33.299Z,33.70
2017-08-11T06:46:59.896Z,32.80
2017-08-11T06:49:26.569Z,34.30
2017-08-11T06:51:53.540Z,31.40
2017-08-11T06:54:20.132Z,30.63
2017-08-11T06:56:46.727Z,32.13
2017-08-11T06:59:13.361Z,31.27
2017-08-11T07:01:39.994Z,28.83
2017-08-11T07:04:06.642Z,30.33
2017-08-11T07:06:33.349Z,29.43
2017-08-11T07:08:59.935Z,26.47
2017-08-11T07:11:26.550Z,23.60
2017-08-11T07:13:53.255Z,22.23
2017-08-11T07:16:19.851Z,21.57
2017-08-11T07:18:46.444Z,21.77
2017-08-11T07:21:13.057Z,20.70
2017-08-11T07:23:40.700Z,21.73
2017-08-11T07:26:07.495Z,19.43
2017-08-11T07:28:34.104Z,19.60
2017-08-11T07:31:06.842Z,17.70
2017-08-11T07:33:33.436Z,17.13
2017-08-11T07:36:00.036Z,18.47
2017-08-11T07:38:34.219Z,18.20
2017-08-11T07:41:00.847Z,16.77
2017-08-11T07:43:27.455Z,16.97
2017-08-11T07:45:54.168Z,17.73
2017-08-11T07:48:20.763Z,16.60
2017-08-11T07:50:47.360Z,17.93
2017-08-11T07:53:13.985Z,18.20
2017-08-11T07:55:40.608Z,15.87
2017-08-11T07:58:13.656Z,16.03
2017-08-11T08:00:40.312Z,16.23
2017-08-11T08:03:07.112Z,15.17
2017-08-11T08:05:34.112Z,16.10
2017-08-11T08:08:00.793Z,14.17
2017-08-11T08:10:33.186Z,13.90
2017-08-11T08:12:59.788Z,14.70
2017-08-11T08:15:26.404Z,14.20
2017-08-11T08:17:53.155Z,14.53
2017-08-11T08:20:19.762Z,14.30
2017-08-11T08:22:52.592Z,14.57
2017-08-11T08:25:19.213Z,14.43
2017-08-11T08:27:45.821Z,14.00
2017-08-11T08:30:12.436Z,14.43
2017-08-11T08:32:40.134Z,14.30
2017-08-11T08:35:06.741Z,14.33
2017-08-11T08:37:33.355Z,14.70
2017-08-11T08:40:00.145Z,13.50
2017-08-11T08:42:26.767Z,13.10
2017-08-11T08:44:53.367Z,12.70
2017-08-11T08:47:20.310Z,12.67
2017-08-11T08:49:46.911Z,13.80
2017-08-11T08:52:13.503Z,12.93
2017-08-11T08:54:40.312Z,12.60
2017-08-11T08:57:06.966Z,12.97
2017-08-11T08:59:33.616Z,13.33
2017-08-11T09:02:00.227Z,13.53
2017-08-11T09:04:26.819Z,12.40
2017-08-11T09:06:53.420Z,10.73
2017-08-11T09:09:20.127Z,12.00
2017-08-11T09:11:46.738Z,11.93
2017-08-11T09:14:13.355Z,11.00
2017-08-11T09:16:40.202Z,11.50
2017-08-11T09:19:06.913Z,11.03
2017-08-11T09:21:33.511Z,12.43
2017-08-11T09:24:00.399Z,12.37
2017-08-11T09:26:32.918Z,12.13
2017-08-11T09:29:05.613Z,12.20
2017-08-11T09:31:38.504Z,13.00
2017-08-11T09:34:11.370Z,13.10
2017-08-11T09:36:37.997Z,13.00
2017-08-11T09:39:04.630Z,10.87
2017-08-11T09:41:31.535Z,12.40
2017-08-11T09:43:58.127Z,12.90
2017-08-11T09:46:24.744Z,12.50
2017-08-11T09:48:51.694Z,12.67
2017-08-11T09:51:18.283Z,12.60
2017-08-11T09:53:44.884Z,13.10
2017-08-11T09:56:11.592Z,12.90
2017-08-11T09:58:38.201Z,13.50
2017-08-11T10:01:04.795Z,13.40
2017-08-11T10:03:31.506Z,13.50
2017-08-11T10:05:58.112Z,14.70
2017-08-11T10:08:24.691Z,15.57
2017-08-11T10:10:51.608Z,15.30
2017-08-11T10:13:18.203Z,15.53
2017-08-11T10:15:44.790Z,14.40
2017-08-11T10:18:11.408Z,15.47
2017-08-11T10:20:38.383Z,15.47
2017-08-11T10:23:05.035Z,15.73
2017-08-11T10:25:31.827Z,15.70
2017-08-11T10:27:58.423Z,16.30
2017-08-11T10:30:25.023Z,16.80
2017-08-11T10:32:51.888Z,16.33
2017-08-11T10:35:18.482Z,17.60
2017-08-11T10:37:45.075Z,17.10
2017-08-11T10:40:11.864Z,18.53
2017-08-11T10:42:38.488Z,18.30
2017-08-11T10:45:05.114Z,18.70
2017-08-11T10:47:31.723Z,18.77
2017-08-11T10:49:58.337Z,19.23
2017-08-11T10:52:24.927Z,18.60
2017-08-11T10:54:51.698Z,18.40
2017-08-11T10:57:18.295Z,19.27
2017-08-11T10:59:44.891Z,20.57
2017-08-11T11:02:11.532Z,18.73
2017-08-11T11:04:38.231Z,19.33
2017-08-11T11:07:04.862Z,20.43
2017-08-11T11:09:31.507Z,19.43
2017-08-11T11:11:58.099Z,20.60
2017-08-11T11:14:24.692Z,22.03
2017-08-11T11:16:52.298Z,21.17
2017-08-11T11:19:18.916Z,21.40
2017-08-11T11:21:45.515Z,20.93
2017-08-11T11:24:12.282Z,22.03
2017-08-11T11:26:39.254Z,23.33
2017-08-11T11:29:05.893Z,22.30
2017-08-11T11:31:40.212Z,21.60
2017-08-11T11:34:07.682Z,21.17
2017-08-11T11:36:34.391Z,22.33
2017-08-11T11:39:01.243Z,18.80
2017-08-11T11:41:27.846Z,21.50
2017-08-11T11:43:54.451Z,20.50
2017-08-11T11:46:21.095Z,22.60
2017-08-11T11:48:47.686Z,20.47
2017-08-11T11:51:14.287Z,21.80
2017-08-11T11:53:40.995Z,20.77
2017-08-11T11:56:07.603Z,23.83
2017-08-11T11:58:34.196Z,22.33
2017-08-11T12:01:00.798Z,22.10
2017-08-11T12:03:27.400Z,23.40
2017-08-11T12:05:53.988Z,23.10
2017-08-11T12:08:20.760Z,21.40
2017-08-11T12:10:47.351Z,21.23
2017-08-11T12:13:13.976Z,21.63
2017-08-11T12:15:40.601Z,21.60
2017-08-11T12:18:07.234Z,20.13
2017-08-11T12:20:33.818Z,20.00
2017-08-11T12:23:00.529Z,22.20
2017-08-11T12:25:27.221Z,19.93
2017-08-11T12:27:53.847Z,21.20
2017-08-11T12:30:20.576Z,21.07
2017-08-11T12:32:47.254Z,21.03
2017-08-11T12:35:13.916Z,21.17
2017-08-11T12:37:40.704Z,20.77
2017-08-11T12:40:07.452Z,22.10
2017-08-11T12:42:34.051Z,21.30
2017-08-11T12:45:00.813Z,20.70
2017-08-11T12:47:27.417Z,20.40
2017-08-11T12:49:54.111Z,19.43
2017-08-11T12:52:20.757Z,22.20
2017-08-11T12:54:47.359Z,23.37
2017-08-11T12:57:13.971Z,22.77
2017-08-11T12:59:40.653Z,22.60
2017-08-11T13:02:07.690Z,22.70
2017-08-11T13:04:34.295Z,25.00
2017-08-11T13:07:06.901Z,23.80
2017-08-11T13:09:33.508Z,23.80
2017-08-11T13:12:00.108Z,24.47
2017-08-11T13:14:26.716Z,23.77
2017-08-11T13:16:53.308Z,24.40
2017-08-11T13:19:19.980Z,24.10
2017-08-11T13:21:46.619Z,23.60
2017-08-11T13:24:13.269Z,22.93
2017-08-11T13:26:40.024Z,23.23
2017-08-11T13:29:06.886Z,21.47
2017-08-11T13:31:33.483Z,22.17
2017-08-11T13:34:00.075Z,22.37
2017-08-11T13:36:26.783Z,22.83
2017-08-11T13:38:53.377Z,22.00
2017-08-11T13:41:19.970Z,22.40
2017-08-11T13:43:46.607Z,21.97
2017-08-11T13:46:13.217Z,22.70
2017-08-11T13:48:43.532Z,22.63
2017-08-11T13:51:10.183Z,23.03
2017-08-11T13:53:36.797Z,22.40
2017-08-11T13:56:03.390Z,23.77
2017-08-11T13:58:30.192Z,23.13
2017-08-11T14:00:56.795Z,21.90
2017-08-11T14:03:23.418Z,21.60
2017-08-11T14:05:50.181Z,21.63
2017-08-11T14:08:16.836Z,20.00
2017-08-11T14:10:43.426Z,21.50
2017-08-11T14:13:10.202Z,21.80
2017-08-11T14:15:36.811Z,20.20
2017-08-11T14:18:03.479Z,18.57
2017-08-11T14:20:30.399Z,21.33
2017-08-11T14:22:58.296Z,21.80
2017-08-11T14:25:24.932Z,20.07
2017-08-11T14:27:51.832Z,19.10
2017-08-11T14:30:18.423Z,19.23
2017-08-11T14:32:45.020Z,19.50
2017-08-11T14:35:11.629Z,18.37
2017-08-11T14:37:38.253Z,19.00
2017-08-11T14:40:04.887Z,23.97
2017-08-11T14:42:31.948Z,28.03
2017-08-11T14:44:58.566Z,28.13
2017-08-11T14:47:25.163Z,26.27
2017-08-11T14:49:52.011Z,25.00
2017-08-11T14:52:18.631Z,22.33
2017-08-11T14:54:45.224Z,20.97
2017-08-11T14:57:11.900Z,20.80
2017-08-11T14:59:38.520Z,22.20
2017-08-11T15:02:05.120Z,20.77
2017-08-11T15:04:32.017Z,20.07
2017-08-11T15:06:58.640Z,19.77
2017-08-11T15:09:25.222Z,20.33
2017-08-11T15:11:51.933Z,20.20
2017-08-11T15:14:18.527Z,18.50
2017-08-11T15:16:45.126Z,20.50
2017-08-11T15:19:11.786Z,18.33
2017-08-11T15:21:38.389Z,18.07
2017-08-11T15:24:04.993Z,19.10
2017-08-11T15:26:31.783Z,19.77
2017-08-11T15:28:58.391Z,18.03
2017-08-11T15:31:25.000Z,18.97
2017-08-11T15:33:51.823Z,17.20
2017-08-11T15:36:18.491Z,18.57
2017-08-11T15:38:45.086Z,17.23
2017-08-11T15:41:11.899Z,20.40
2017-08-11T15:43:44.430Z,18.07
2017-08-11T15:46:11.044Z,17.70
2017-08-11T15:48:37.770Z,19.50
2017-08-11T15:51:14.919Z,18.50
2017-08-11T15:53:41.519Z,19.00
2017-08-11T15:56:08.136Z,19.63
2017-08-11T15:58:35.045Z,18.23
2017-08-11T16:01:02.461Z,18.30
2017-08-11T16:03:29.064Z,18.83
2017-08-11T16:05:55.835Z,17.17
2017-08-11T16:08:22.447Z,18.80
2017-08-11T16:10:49.051Z,17.90
2017-08-11T16:13:15.775Z,18.80
2017-08-11T16:15:42.395Z,20.23
2017-08-11T16:18:09.015Z,20.17
2017-08-11T16:20:35.633Z,20.30
2017-08-11T16:23:02.222Z,18.97
2017-08-11T16:25:28.819Z,20.37
2017-08-11T16:27:55.540Z,19.43
2017-08-11T16:30:22.130Z,21.23
2017-08-11T16:32:48.728Z,21.20
2017-08-11T16:35:15.368Z,21.27
2017-08-11T16:37:45.588Z,20.90
2017-08-11T16:40:12.202Z,21.57
2017-08-11T16:42:38.809Z,21.43
2017-08-11T16:45:05.492Z,20.60
2017-08-11T16:47:40.464Z,23.07
2017-08-11T16:50:07.071Z,22.00
2017-08-11T16:52:33.719Z,22.00
2017-08-11T16:55:00.338Z,22.80
2017-08-11T16:57:26.935Z,22.10
2017-08-11T16:59:53.552Z,22.23
2017-08-11T17:02:20.178Z,22.43
2017-08-11T17:04:46.779Z,21.13
2017-08-11T17:07:13.400Z,20.43
2017-08-11T17:09:43.426Z,21.60
2017-08-11T17:12:10.046Z,20.63
2017-08-11T17:14:36.774Z,20.57
2017-08-11T17:17:03.363Z,20.30
2017-08-11T17:19:31.250Z,19.90
2017-08-11T17:21:58.692Z,20.70
2017-08-11T17:24:31.265Z,19.80
2017-08-11T17:26:57.872Z,19.27
2017-08-11T17:29:24.467Z,20.77
2017-08-11T17:31:51.068Z,20.90
2017-08-11T17:34:17.676Z,20.40
2017-08-11T17:36:44.284Z,21.20
2017-08-11T17:39:10.894Z,22.23
2017-08-11T17:41:38.470Z,22.03
2017-08-11T17:44:05.172Z,21.83
2017-08-11T17:46:31.790Z,22.53
2017-08-11T17:49:02.799Z,21.60
2017-08-11T17:51:30.624Z,22.83
2017-08-11T17:53:57.255Z,25.00
2017-08-11T17:56:23.875Z,22.83
2017-08-11T17:58:51.731Z,22.60
2017-08-11T18:01:24.295Z,20.80
2017-08-11T18:03:50.918Z,21.37
2017-08-11T18:06:23.612Z,21.90
2017-08-11T18:08:53.612Z,23.10
2017-08-11T18:11:20.232Z,22.03
2017-08-11T18:13:47.081Z,21.40
2017-08-11T18:16:13.726Z,22.57
2017-08-11T18:18:40.548Z,22.77
2017-08-11T18:21:07.184Z,21.57
2017-08-11T18:23:44.145Z,23.30
2017-08-11T18:26:10.868Z,23.30
2017-08-11T18:28:37.905Z,24.20
2017-08-11T18:31:04.622Z,22.60
2017-08-11T18:33:31.219Z,22.77
2017-08-11T18:35:57.827Z,19.73
2017-08-11T18:38:24.456Z,22.77
2017-08-11T18:40:51.048Z,22.60
2017-08-11T18:43:17.804Z,21.83
2017-08-11T18:45:44.404Z,21.80
2017-08-11T18:53:40.395Z,23.97
2017-08-11T18:56:07.088Z,21.40
2017-08-11T18:58:33.746Z,21.13
2017-08-11T19:01:00.317Z,22.97
2017-08-11T19:03:26.913Z,22.03
2017-08-11T19:05:53.541Z,22.73
2017-08-11T19:08:20.277Z,21.03
2017-08-11T19:10:52.957Z,21.63
2017-08-11T19:13:19.586Z,21.30
2017-08-11T19:15:52.899Z,20.90
2017-08-11T19:18:19.494Z,20.87
2017-08-11T19:20:52.997Z,21.93
2017-08-11T19:23:25.573Z,21.13
2017-08-11T19:25:52.173Z,22.33
2017-08-11T19:28:18.770Z,22.40
2017-08-11T19:30:45.570Z,21.83
2017-08-11T19:33:12.157Z,22.60
2017-08-11T19:38:22.753Z,23.50
2017-08-11T19:40:49.358Z,25.10
2017-08-11T19:43:15.955Z,24.43
2017-08-11T19:45:50.419Z,22.13
2017-08-11T19:48:17.014Z,22.40
2017-08-11T19:50:50.554Z,22.80
2017-08-11T19:53:17.144Z,21.67
2017-08-11T19:55:50.506Z,21.90
2017-08-11T19:58:17.101Z,22.47
2017-08-11T20:00:43.722Z,23.47
2017-08-11T20:03:10.386Z,23.20
2017-08-11T20:05:36.981Z,21.63
2017-08-11T20:08:03.575Z,22.83
2017-08-11T20:10:30.245Z,24.00
2017-08-11T20:12:57.010Z,23.33
2017-08-11T20:15:23.630Z,23.63
2017-08-11T20:17:50.219Z,22.40
2017-08-11T20:20:16.851Z,24.43
2017-08-11T20:22:43.443Z,23.10
2017-08-11T20:25:10.059Z,23.47
2017-08-11T20:27:36.670Z,23.90
2017-08-11T20:30:03.267Z,23.13
2017-08-11T20:32:29.886Z,23.80
2017-08-11T20:34:56.517Z,22.87
2017-08-11T20:37:23.123Z,24.00
2017-08-11T20:39:49.707Z,22.80
2017-08-11T20:42:16.302Z,23.50
2017-08-11T20:44:42.891Z,22.17
2017-08-11T20:47:09.511Z,23.10
2017-08-11T20:49:36.114Z,23.43
2017-08-11T20:52:02.714Z,23.27
2017-08-11T20:54:29.322Z,22.17
2017-08-11T20:56:55.916Z,24.23
2017-08-11T20:59:22.521Z,23.60
2017-08-11T21:01:49.110Z,23.17
2017-08-11T21:04:15.717Z,23.87
2017-08-11T21:06:42.351Z,23.87
2017-08-11T21:09:09.000Z,25.47
2017-08-11T21:11:35.879Z,23.43
2017-08-11T21:14:02.466Z,23.10
2017-08-11T21:16:29.065Z,23.07
2017-08-11T21:18:55.661Z,22.60
2017-08-11T21:21:22.270Z,23.70
2017-08-11T21:23:48.862Z,24.53
2017-08-11T21:26:15.482Z,26.30
2017-08-11T21:28:42.086Z,23.63
2017-08-11T21:31:08.703Z,25.17
2017-08-11T21:33:35.285Z,26.97
2017-08-11T21:36:01.878Z,25.50
2017-08-11T21:38:28.473Z,24.50
2017-08-11T21:40:55.103Z,25.23
2017-08-11T21:43:21.691Z,24.03
2017-08-11T21:45:48.279Z,23.60
2017-08-11T21:48:14.882Z,24.93
2017-08-11T21:50:41.516Z,24.70
2017-08-11T21:53:08.108Z,24.43
2017-08-11T21:55:34.694Z,24.57
2017-08-11T21:58:01.297Z,23.70
2017-08-11T22:00:27.918Z,29.63
2017-08-11T22:02:54.525Z,31.10
2017-08-11T22:05:21.122Z,29.90
2017-08-11T22:07:47.706Z,27.60
2017-08-11T22:10:14.319Z,27.30
2017-08-11T22:12:40.929Z,25.43
2017-08-11T22:15:07.520Z,24.10
2017-08-11T22:17:34.118Z,21.77
2017-08-11T22:20:00.710Z,22.10
2017-08-11T22:22:27.333Z,21.93
2017-08-11T22:24:53.897Z,23.80
2017-08-11T22:27:20.505Z,21.80
2017-08-11T22:29:47.107Z,20.97
2017-08-11T22:32:13.701Z,20.67
2017-08-11T22:34:40.339Z,20.53
2017-08-11T22:37:06.946Z,20.63
2017-08-11T22:39:33.567Z,19.07
2017-08-11T22:42:00.158Z,20.30
2017-08-11T22:44:26.765Z,21.27
2017-08-11T22:46:53.353Z,18.20
2017-08-11T22:49:19.946Z,20.13
2017-08-11T22:51:46.546Z,19.23
2017-08-11T22:54:13.155Z,20.50
2017-08-11T22:56:39.866Z,19.97
2017-08-11T22:59:06.483Z,19.47
2017-08-11T23:01:33.090Z,19.27
2017-08-11T23:03:59.689Z,19.67
2017-08-11T23:06:26.292Z,21.87
2017-08-11T23:08:52.937Z,21.83
2017-08-11T23:11:19.642Z,21.67
2017-08-11T23:13:46.238Z,22.50
2017-08-11T23:16:12.835Z,22.27
2017-08-11T23:18:39.466Z,21.63
2017-08-11T23:21:06.063Z,21.43
2017-08-11T23:23:32.651Z,22.07
2017-08-11T23:25:59.246Z,22.67
2017-08-11T23:28:25.898Z,22.17
2017-08-11T23:30:52.598Z,22.83
2017-08-11T23:33:19.189Z,23.00
2017-08-11T23:35:45.783Z,22.50
2017-08-11T23:38:12.387Z,23.30
2017-08-11T23:40:39.008Z,21.80
2017-08-11T23:43:05.644Z,19.80
2017-08-11T23:45:32.250Z,18.50
2017-08-11T23:47:58.860Z,17.13
2017-08-11T23:50:25.470Z,17.13
2017-08-11T23:52:52.081Z,18.20
2017-08-11T23:55:18.669Z,18.50
2017-08-11T23:57:45.260Z,18.13
